Terminal Aerodrome Forecast
Issued by NWS

Home | Current Version | Previous Version | Text Only | Print | Product List | Glossary Off
Versions: 1 2 3 4 5 6 7 8 9 10 11 12 13 14 15 16 17 18 19 20 21 22 23 24

831
FTUS45 KGGW 160525
TAFOLF
TAF
KOLF 160525Z 1606/1706 24006KT P6SM SKC
     FM161800 25013KT P6SM BKN110
     FM170000 27009KT P6SM BKN080=

USA.gov is the U.S. government's official web portal to all federal, state and local government web resources and services.